sensor_id;sensor_type;location;lat;lon;timestamp;temperature;humidity
39849;DHT22;25518;47.878;15.914;2023-10-09T00:01:08;10.40;99.90
39849;DHT22;25518;47.878;15.914;2023-10-09T00:03:48;10.40;99.90
39849;DHT22;25518;47.878;15.914;2023-10-09T00:06:23;10.30;99.90
39849;DHT22;25518;47.878;15.914;2023-10-09T00:09:08;10.40;99.90
39849;DHT22;25518;47.878;15.914;2023-10-09T00:11:48;10.50;99.90
39849;DHT22;25518;47.878;15.914;2023-10-09T00:14:19;10.50;99.90
39849;DHT22;25518;47.878;15.914;2023-10-09T00:16:50;10.00;99.90
39849;DHT22;25518;47.878;15.914;2023-10-09T00:19:26;10.50;99.90
39849;DHT22;25518;47.878;15.914;2023-10-09T00:22:03;10.50;99.90
39849;DHT22;25518;47.878;15.914;2023-10-09T00:24:35;10.50;99.90
39849;DHT22;25518;47.878;15.914;2023-10-09T00:27:08;10.40;99.90
39849;DHT22;25518;47.878;15.914;2023-10-09T00:29:43;10.40;99.90
39849;DHT22;25518;47.878;15.914;2023-10-09T00:32:16;10.40;99.90
39849;DHT22;25518;47.878;15.914;2023-10-09T00:34:50;10.50;99.90
39849;DHT22;25518;47.878;15.914;2023-10-09T00:37:21;10.50;99.90
39849;DHT22;25518;47.878;15.914;2023-10-09T00:39:55;10.50;99.90
39849;DHT22;25518;47.878;15.914;2023-10-09T00:42:26;10.50;99.90
39849;DHT22;25518;47.878;15.914;2023-10-09T00:45:04;10.50;99.90
39849;DHT22;25518;47.878;15.914;2023-10-09T00:47:35;10.50;99.90
39849;DHT22;25518;47.878;15.914;2023-10-09T00:50:11;10.40;99.90
39849;DHT22;25518;47.878;15.914;2023-10-09T00:52:54;10.30;99.90
39849;DHT22;25518;47.878;15.914;2023-10-09T00:55:33;10.40;99.90
39849;DHT22;25518;47.878;15.914;2023-10-09T00:58:10;10.40;99.90
39849;DHT22;25518;47.878;15.914;2023-10-09T01:00:44;10.40;99.90
39849;DHT22;25518;47.878;15.914;2023-10-09T01:03:16;10.40;99.90
39849;DHT22;25518;47.878;15.914;2023-10-09T01:05:51;10.30;99.90
39849;DHT22;25518;47.878;15.914;2023-10-09T01:08:24;10.30;99.90
39849;DHT22;25518;47.878;15.914;2023-10-09T01:11:14;10.20;99.90
39849;DHT22;25518;47.878;15.914;2023-10-09T01:13:54;10.00;99.90
39849;DHT22;25518;47.878;15.914;2023-10-09T01:16:42;10.00;99.90
39849;DHT22;25518;47.878;15.914;2023-10-09T01:19:14;10.10;99.90
39849;DHT22;25518;47.878;15.914;2023-10-09T01:21:54;10.00;99.90
39849;DHT22;25518;47.878;15.914;2023-10-09T01:24:25;10.00;99.90
39849;DHT22;25518;47.878;15.914;2023-10-09T01:26:57;10.10;99.90
39849;DHT22;25518;47.878;15.914;2023-10-09T01:29:30;10.10;99.90
39849;DHT22;25518;47.878;15.914;2023-10-09T01:32:01;10.10;99.90
39849;DHT22;25518;47.878;15.914;2023-10-09T01:34:34;10.10;99.90
39849;DHT22;25518;47.878;15.914;2023-10-09T01:37:16;10.10;99.90
39849;DHT22;25518;47.878;15.914;2023-10-09T01:40:07;10.10;99.90
39849;DHT22;25518;47.878;15.914;2023-10-09T01:42:58;10.00;99.90
39849;DHT22;25518;47.878;15.914;2023-10-09T01:45:29;10.00;99.90
39849;DHT22;25518;47.878;15.914;2023-10-09T01:48:00;9.90;99.90
39849;DHT22;25518;47.878;15.914;2023-10-09T01:50:35;9.90;99.90
39849;DHT22;25518;47.878;15.914;2023-10-09T01:53:08;9.90;99.90
39849;DHT22;25518;47.878;15.914;2023-10-09T01:55:39;9.90;99.90
39849;DHT22;25518;47.878;15.914;2023-10-09T01:58:11;10.00;99.90
39849;DHT22;25518;47.878;15.914;2023-10-09T02:01:02;10.10;99.90
39849;DHT22;25518;47.878;15.914;2023-10-09T02:03:36;7.30;99.90
39849;DHT22;25518;47.878;15.914;2023-10-09T02:06:09;9.90;99.90
39849;DHT22;25518;47.878;15.914;2023-10-09T02:08:55;10.00;99.90
39849;DHT22;25518;47.878;15.914;2023-10-09T02:11:26;10.00;99.90
39849;DHT22;25518;47.878;15.914;2023-10-09T02:14:16;10.00;99.90
39849;DHT22;25518;47.878;15.914;2023-10-09T02:16:50;10.00;99.90
39849;DHT22;25518;47.878;15.914;2023-10-09T02:19:41;9.90;99.90
39849;DHT22;25518;47.878;15.914;2023-10-09T02:22:13;10.00;99.90
39849;DHT22;25518;47.878;15.914;2023-10-09T02:24:45;10.10;99.90
39849;DHT22;25518;47.878;15.914;2023-10-09T02:27:20;10.00;99.90
39849;DHT22;25518;47.878;15.914;2023-10-09T02:30:11;10.00;99.90
39849;DHT22;25518;47.878;15.914;2023-10-09T02:32:46;10.00;99.90
39849;DHT22;25518;47.878;15.914;2023-10-09T02:35:23;9.90;99.90
39849;DHT22;25518;47.878;15.914;2023-10-09T02:38:13;9.90;99.90
39849;DHT22;25518;47.878;15.914;2023-10-09T02:40:45;9.90;99.90
39849;DHT22;25518;47.878;15.914;2023-10-09T02:43:36;9.80;99.90
39849;DHT22;25518;47.878;15.914;2023-10-09T02:46:25;9.70;99.90
39849;DHT22;25518;47.878;15.914;2023-10-09T02:49:01;9.70;99.90
39849;DHT22;25518;47.878;15.914;2023-10-09T02:51:37;7.60;99.90
39849;DHT22;25518;47.878;15.914;2023-10-09T02:54:18;9.60;99.90
39849;DHT22;25518;47.878;15.914;2023-10-09T02:56:57;9.50;99.90
39849;DHT22;25518;47.878;15.914;2023-10-09T02:59:49;9.50;99.90
39849;DHT22;25518;47.878;15.914;2023-10-09T03:02:22;9.60;99.90
39849;DHT22;25518;47.878;15.914;2023-10-09T03:04:54;9.60;99.90
39849;DHT22;25518;47.878;15.914;2023-10-09T03:07:26;9.50;99.90
39849;DHT22;25518;47.878;15.914;2023-10-09T03:09:56;9.40;99.90
39849;DHT22;25518;47.878;15.914;2023-10-09T03:12:27;9.40;99.90
39849;DHT22;25518;47.878;15.914;2023-10-09T03:14:59;9.30;99.90
39849;DHT22;25518;47.878;15.914;2023-10-09T03:17:32;9.30;99.90
39849;DHT22;25518;47.878;15.914;2023-10-09T03:20:06;9.20;99.90
39849;DHT22;25518;47.878;15.914;2023-10-09T03:22:44;9.30;99.90
39849;DHT22;25518;47.878;15.914;2023-10-09T03:25:16;9.10;99.90
39849;DHT22;25518;47.878;15.914;2023-10-09T03:27:48;9.10;99.90
39849;DHT22;25518;47.878;15.914;2023-10-09T03:30:19;9.00;99.90
39849;DHT22;25518;47.878;15.914;2023-10-09T03:32:54;9.20;99.90
39849;DHT22;25518;47.878;15.914;2023-10-09T03:35:25;9.30;99.90
39849;DHT22;25518;47.878;15.914;2023-10-09T03:37:58;9.30;99.90
39849;DHT22;25518;47.878;15.914;2023-10-09T03:40:49;9.10;99.90
39849;DHT22;25518;47.878;15.914;2023-10-09T03:43:20;9.10;99.90
39849;DHT22;25518;47.878;15.914;2023-10-09T03:45:52;9.30;99.90
39849;DHT22;25518;47.878;15.914;2023-10-09T03:48:23;9.40;99.90
39849;DHT22;25518;47.878;15.914;2023-10-09T03:51:03;9.40;99.90
39849;DHT22;25518;47.878;15.914;2023-10-09T03:53:54;9.40;99.90
39849;DHT22;25518;47.878;15.914;2023-10-09T03:56:24;9.50;99.90
39849;DHT22;25518;47.878;15.914;2023-10-09T03:58:56;9.40;99.90
39849;DHT22;25518;47.878;15.914;2023-10-09T04:01:27;9.30;99.90
39849;DHT22;25518;47.878;15.914;2023-10-09T04:04:00;9.30;99.90
39849;DHT22;25518;47.878;15.914;2023-10-09T04:06:31;9.30;99.90
39849;DHT22;25518;47.878;15.914;2023-10-09T04:09:09;9.20;99.90
39849;DHT22;25518;47.878;15.914;2023-10-09T04:11:57;9.10;99.90
39849;DHT22;25518;47.878;15.914;2023-10-09T04:14:48;9.10;99.90
39849;DHT22;25518;47.878;15.914;2023-10-09T04:17:31;9.10;99.90
39849;DHT22;25518;47.878;15.914;2023-10-09T04:20:05;9.00;99.90
39849;DHT22;25518;47.878;15.914;2023-10-09T04:22:51;9.20;99.90
39849;DHT22;25518;47.878;15.914;2023-10-09T04:25:31;9.10;99.90
39849;DHT22;25518;47.878;15.914;2023-10-09T04:28:21;9.20;99.90
39849;DHT22;25518;47.878;15.914;2023-10-09T04:30:53;9.30;99.90
39849;DHT22;25518;47.878;15.914;2023-10-09T04:33:24;9.30;99.90
39849;DHT22;25518;47.878;15.914;2023-10-09T04:36:08;9.20;99.90
39849;DHT22;25518;47.878;15.914;2023-10-09T04:38:53;9.20;99.90
39849;DHT22;25518;47.878;15.914;2023-10-09T04:41:40;9.20;99.90
39849;DHT22;25518;47.878;15.914;2023-10-09T04:44:12;9.20;99.90
39849;DHT22;25518;47.878;15.914;2023-10-09T04:46:51;9.20;99.90
39849;DHT22;25518;47.878;15.914;2023-10-09T04:49:42;9.30;99.90
39849;DHT22;25518;47.878;15.914;2023-10-09T04:52:32;9.30;99.90
39849;DHT22;25518;47.878;15.914;2023-10-09T04:55:03;9.40;99.90
39849;DHT22;25518;47.878;15.914;2023-10-09T04:57:43;9.40;99.90
39849;DHT22;25518;47.878;15.914;2023-10-09T05:00:16;9.30;99.90
39849;DHT22;25518;47.878;15.914;2023-10-09T05:03:03;9.30;99.90
39849;DHT22;25518;47.878;15.914;2023-10-09T05:05:39;9.30;99.90
39849;DHT22;25518;47.878;15.914;2023-10-09T05:08:14;9.20;99.90
39849;DHT22;25518;47.878;15.914;2023-10-09T05:10:54;9.20;99.90
39849;DHT22;25518;47.878;15.914;2023-10-09T05:13:30;9.30;99.90
39849;DHT22;25518;47.878;15.914;2023-10-09T05:16:15;9.20;99.90
39849;DHT22;25518;47.878;15.914;2023-10-09T05:18:54;9.20;99.90
39849;DHT22;25518;47.878;15.914;2023-10-09T05:21:32;9.20;99.90
39849;DHT22;25518;47.878;15.914;2023-10-09T05:24:05;9.30;99.90
39849;DHT22;25518;47.878;15.914;2023-10-09T05:26:45;9.30;99.90
39849;DHT22;25518;47.878;15.914;2023-10-09T05:29:22;9.30;99.90
39849;DHT22;25518;47.878;15.914;2023-10-09T05:32:13;7.80;99.90
39849;DHT22;25518;47.878;15.914;2023-10-09T05:34:45;9.10;99.90
39849;DHT22;25518;47.878;15.914;2023-10-09T05:37:33;9.00;99.90
39849;DHT22;25518;47.878;15.914;2023-10-09T05:40:05;9.00;99.90
39849;DHT22;25518;47.878;15.914;2023-10-09T05:42:53;9.10;99.90
39849;DHT22;25518;47.878;15.914;2023-10-09T05:45:33;9.20;99.90
39849;DHT22;25518;47.878;15.914;2023-10-09T05:48:24;9.20;99.90
39849;DHT22;25518;47.878;15.914;2023-10-09T05:50:55;9.30;99.90
39849;DHT22;25518;47.878;15.914;2023-10-09T05:53:45;9.30;99.90
39849;DHT22;25518;47.878;15.914;2023-10-09T05:56:16;9.30;99.90
39849;DHT22;25518;47.878;15.914;2023-10-09T05:59:03;9.50;99.90
39849;DHT22;25518;47.878;15.914;2023-10-09T06:01:54;9.50;99.90
39849;DHT22;25518;47.878;15.914;2023-10-09T06:04:44;9.60;99.90
39849;DHT22;25518;47.878;15.914;2023-10-09T06:07:35;9.80;99.90
39849;DHT22;25518;47.878;15.914;2023-10-09T06:10:26;9.90;99.90
39849;DHT22;25518;47.878;15.914;2023-10-09T06:13:10;9.80;99.90
39849;DHT22;25518;47.878;15.914;2023-10-09T06:16:01;9.80;99.90
39849;DHT22;25518;47.878;15.914;2023-10-09T06:18:40;9.90;99.90
39849;DHT22;25518;47.878;15.914;2023-10-09T06:21:14;9.80;99.90
39849;DHT22;25518;47.878;15.914;2023-10-09T06:24:07;9.90;99.90
39849;DHT22;25518;47.878;15.914;2023-10-09T06:26:46;10.00;99.90
39849;DHT22;25518;47.878;15.914;2023-10-09T06:29:33;9.90;99.90
39849;DHT22;25518;47.878;15.914;2023-10-09T06:32:08;9.70;99.90
39849;DHT22;25518;47.878;15.914;2023-10-09T06:35:00;9.80;99.90
39849;DHT22;25518;47.878;15.914;2023-10-09T06:37:50;9.70;99.90
39849;DHT22;25518;47.878;15.914;2023-10-09T06:40:47;9.50;99.90
39849;DHT22;25518;47.878;15.914;2023-10-09T06:43:38;9.50;99.90
39849;DHT22;25518;47.878;15.914;2023-10-09T06:46:15;9.60;99.90
39849;DHT22;25518;47.878;15.914;2023-10-09T06:49:06;9.70;99.90
39849;DHT22;25518;47.878;15.914;2023-10-09T06:51:57;9.90;99.90
39849;DHT22;25518;47.878;15.914;2023-10-09T06:54:39;10.20;99.90
39849;DHT22;25518;47.878;15.914;2023-10-09T06:57:19;10.20;99.90
39849;DHT22;25518;47.878;15.914;2023-10-09T07:00:11;10.50;99.90
39849;DHT22;25518;47.878;15.914;2023-10-09T07:03:02;10.50;99.90
39849;DHT22;25518;47.878;15.914;2023-10-09T07:05:42;10.60;99.90
39849;DHT22;25518;47.878;15.914;2023-10-09T07:08:32;10.70;99.90
39849;DHT22;25518;47.878;15.914;2023-10-09T07:11:07;10.60;99.90
39849;DHT22;25518;47.878;15.914;2023-10-09T07:13:58;10.40;99.90
39849;DHT22;25518;47.878;15.914;2023-10-09T07:16:33;10.40;99.90
39849;DHT22;25518;47.878;15.914;2023-10-09T07:19:25;10.30;99.90
39849;DHT22;25518;47.878;15.914;2023-10-09T07:22:13;10.30;99.90
39849;DHT22;25518;47.878;15.914;2023-10-09T07:24:53;10.30;99.90
39849;DHT22;25518;47.878;15.914;2023-10-09T07:27:30;10.30;99.90
39849;DHT22;25518;47.878;15.914;2023-10-09T07:30:21;10.30;99.90
39849;DHT22;25518;47.878;15.914;2023-10-09T07:33:04;10.40;99.90
39849;DHT22;25518;47.878;15.914;2023-10-09T07:38:21;10.60;99.90
39849;DHT22;25518;47.878;15.914;2023-10-09T07:40:54;10.60;99.90
39849;DHT22;25518;47.878;15.914;2023-10-09T07:43:34;10.60;99.90
39849;DHT22;25518;47.878;15.914;2023-10-09T07:49:03;10.70;99.90
39849;DHT22;25518;47.878;15.914;2023-10-09T07:51:54;10.80;99.90
39849;DHT22;25518;47.878;15.914;2023-10-09T07:54:26;10.90;99.90
39849;DHT22;25518;47.878;15.914;2023-10-09T07:57:05;11.00;99.90
39849;DHT22;25518;47.878;15.914;2023-10-09T07:59:39;10.90;99.90
39849;DHT22;25518;47.878;15.914;2023-10-09T08:02:12;10.90;99.90
39849;DHT22;25518;47.878;15.914;2023-10-09T08:04:44;11.00;99.90
39849;DHT22;25518;47.878;15.914;2023-10-09T08:07:16;11.20;99.90
39849;DHT22;25518;47.878;15.914;2023-10-09T08:09:50;11.30;99.90
39849;DHT22;25518;47.878;15.914;2023-10-09T08:12:41;11.00;99.90
39849;DHT22;25518;47.878;15.914;2023-10-09T08:15:20;11.40;99.90
39849;DHT22;25518;47.878;15.914;2023-10-09T08:17:53;9.50;99.90
39849;DHT22;25518;47.878;15.914;2023-10-09T08:20:27;11.40;99.90
39849;DHT22;25518;47.878;15.914;2023-10-09T08:23:06;11.10;99.90
39849;DHT22;25518;47.878;15.914;2023-10-09T08:25:57;11.40;99.90
39849;DHT22;25518;47.878;15.914;2023-10-09T08:28:42;11.50;99.90
39849;DHT22;25518;47.878;15.914;2023-10-09T08:31:15;11.40;99.90
39849;DHT22;25518;47.878;15.914;2023-10-09T08:34:06;11.60;99.90
39849;DHT22;25518;47.878;15.914;2023-10-09T08:36:40;11.90;99.90
39849;DHT22;25518;47.878;15.914;2023-10-09T08:39:21;11.80;99.90
39849;DHT22;25518;47.878;15.914;2023-10-09T08:42:04;11.90;99.90
39849;DHT22;25518;47.878;15.914;2023-10-09T08:44:39;11.90;99.90
39849;DHT22;25518;47.878;15.914;2023-10-09T08:47:15;12.10;99.90
39849;DHT22;25518;47.878;15.914;2023-10-09T08:49:46;12.30;99.90
39849;DHT22;25518;47.878;15.914;2023-10-09T08:52:17;12.40;99.90
39849;DHT22;25518;47.878;15.914;2023-10-09T08:54:47;12.70;99.90
39849;DHT22;25518;47.878;15.914;2023-10-09T08:57:18;12.90;99.90
39849;DHT22;25518;47.878;15.914;2023-10-09T08:59:50;12.90;99.90
39849;DHT22;25518;47.878;15.914;2023-10-09T09:02:21;12.90;99.90
39849;DHT22;25518;47.878;15.914;2023-10-09T09:04:52;13.20;99.90
39849;DHT22;25518;47.878;15.914;2023-10-09T09:07:25;13.30;99.90
39849;DHT22;25518;47.878;15.914;2023-10-09T09:09:58;13.40;99.90
39849;DHT22;25518;47.878;15.914;2023-10-09T09:12:38;13.60;99.90
39849;DHT22;25518;47.878;15.914;2023-10-09T09:15:14;13.80;99.90
39849;DHT22;25518;47.878;15.914;2023-10-09T09:18:06;13.90;99.90
39849;DHT22;25518;47.878;15.914;2023-10-09T09:20:39;14.00;99.90
39849;DHT22;25518;47.878;15.914;2023-10-09T09:23:12;14.00;99.90
39849;DHT22;25518;47.878;15.914;2023-10-09T09:25:45;14.60;99.90
39849;DHT22;25518;47.878;15.914;2023-10-09T09:28:17;14.60;99.90
39849;DHT22;25518;47.878;15.914;2023-10-09T09:30:51;15.10;99.90
39849;DHT22;25518;47.878;15.914;2023-10-09T09:33:24;15.90;99.90
39849;DHT22;25518;47.878;15.914;2023-10-09T09:36:10;16.40;99.90
39849;DHT22;25518;47.878;15.914;2023-10-09T09:38:43;17.20;99.90
39849;DHT22;25518;47.878;15.914;2023-10-09T09:41:23;17.50;99.90
39849;DHT22;25518;47.878;15.914;2023-10-09T09:43:57;17.40;99.90
39849;DHT22;25518;47.878;15.914;2023-10-09T09:46:32;17.50;99.90
39849;DHT22;25518;47.878;15.914;2023-10-09T09:49:05;18.20;99.90
39849;DHT22;25518;47.878;15.914;2023-10-09T09:51:48;18.10;99.90
39849;DHT22;25518;47.878;15.914;2023-10-09T09:54:19;18.50;99.90
39849;DHT22;25518;47.878;15.914;2023-10-09T09:56:53;18.60;99.90
39849;DHT22;25518;47.878;15.914;2023-10-09T09:59:26;18.80;99.90
39849;DHT22;25518;47.878;15.914;2023-10-09T10:01:59;19.00;99.90
39849;DHT22;25518;47.878;15.914;2023-10-09T10:04:40;18.90;99.90
39849;DHT22;25518;47.878;15.914;2023-10-09T10:07:13;19.10;99.90
39849;DHT22;25518;47.878;15.914;2023-10-09T10:09:47;19.20;99.90
39849;DHT22;25518;47.878;15.914;2023-10-09T10:15:17;19.50;99.90
39849;DHT22;25518;47.878;15.914;2023-10-09T10:18:08;19.60;99.90
39849;DHT22;25518;47.878;15.914;2023-10-09T10:23:46;19.90;99.90
39849;DHT22;25518;47.878;15.914;2023-10-09T10:26:20;20.00;99.90
39849;DHT22;25518;47.878;15.914;2023-10-09T10:29:20;19.90;99.90
39849;DHT22;25518;47.878;15.914;2023-10-09T10:32:00;20.10;99.90
39849;DHT22;25518;47.878;15.914;2023-10-09T10:34:52;20.30;99.90
39849;DHT22;25518;47.878;15.914;2023-10-09T10:37:42;20.40;99.90
39849;DHT22;25518;47.878;15.914;2023-10-09T10:40:33;20.40;99.90
39849;DHT22;25518;47.878;15.914;2023-10-09T10:43:17;20.50;99.90
39849;DHT22;25518;47.878;15.914;2023-10-09T10:46:08;20.60;99.90
39849;DHT22;25518;47.878;15.914;2023-10-09T10:48:44;20.70;99.90
39849;DHT22;25518;47.878;15.914;2023-10-09T10:51:20;20.80;99.90
39849;DHT22;25518;47.878;15.914;2023-10-09T10:53:53;20.80;99.90
39849;DHT22;25518;47.878;15.914;2023-10-09T10:56:27;20.60;99.90
39849;DHT22;25518;47.878;15.914;2023-10-09T10:59:08;20.50;99.90
39849;DHT22;25518;47.878;15.914;2023-10-09T11:01:39;20.40;99.90
39849;DHT22;25518;47.878;15.914;2023-10-09T11:04:30;20.30;99.90
39849;DHT22;25518;47.878;15.914;2023-10-09T11:07:03;20.20;99.90
39849;DHT22;25518;47.878;15.914;2023-10-09T11:09:49;20.20;99.90
39849;DHT22;25518;47.878;15.914;2023-10-09T11:15:11;20.30;99.90
39849;DHT22;25518;47.878;15.914;2023-10-09T11:18:05;20.40;99.90
39849;DHT22;25518;47.878;15.914;2023-10-09T11:20:57;20.40;99.90
39849;DHT22;25518;47.878;15.914;2023-10-09T11:23:36;20.70;99.90
39849;DHT22;25518;47.878;15.914;2023-10-09T11:26:18;20.80;99.90
39849;DHT22;25518;47.878;15.914;2023-10-09T11:29:15;20.70;99.90
39849;DHT22;25518;47.878;15.914;2023-10-09T11:32:02;20.20;99.90
39849;DHT22;25518;47.878;15.914;2023-10-09T11:34:36;20.60;99.90
39849;DHT22;25518;47.878;15.914;2023-10-09T11:39:42;20.60;99.90
39849;DHT22;25518;47.878;15.914;2023-10-09T11:42:23;20.60;99.90
39849;DHT22;25518;47.878;15.914;2023-10-09T11:45:19;20.60;99.90
39849;DHT22;25518;47.878;15.914;2023-10-09T11:47:52;20.60;99.90
39849;DHT22;25518;47.878;15.914;2023-10-09T11:50:45;20.80;99.90
39849;DHT22;25518;47.878;15.914;2023-10-09T11:53:45;20.70;99.90
39849;DHT22;25518;47.878;15.914;2023-10-09T11:56:24;20.60;99.90
39849;DHT22;25518;47.878;15.914;2023-10-09T11:58:57;20.80;99.90
39849;DHT22;25518;47.878;15.914;2023-10-09T12:01:29;20.90;99.90
39849;DHT22;25518;47.878;15.914;2023-10-09T12:04:06;20.90;99.60
39849;DHT22;25518;47.878;15.914;2023-10-09T12:06:40;20.90;99.90
39849;DHT22;25518;47.878;15.914;2023-10-09T12:09:13;20.90;99.20
39849;DHT22;25518;47.878;15.914;2023-10-09T12:11:54;20.90;98.20
39849;DHT22;25518;47.878;15.914;2023-10-09T12:14:25;20.80;98.70
39849;DHT22;25518;47.878;15.914;2023-10-09T12:16:57;20.90;99.30
39849;DHT22;25518;47.878;15.914;2023-10-09T12:19:28;20.80;97.80
39849;DHT22;25518;47.878;15.914;2023-10-09T12:21:59;19.80;98.40
39849;DHT22;25518;47.878;15.914;2023-10-09T12:24:32;20.60;99.90
39849;DHT22;25518;47.878;15.914;2023-10-09T12:27:04;20.40;99.40
39849;DHT22;25518;47.878;15.914;2023-10-09T12:29:41;20.30;99.10
39849;DHT22;25518;47.878;15.914;2023-10-09T12:32:15;20.00;99.90
39849;DHT22;25518;47.878;15.914;2023-10-09T12:34:50;19.80;99.60
39849;DHT22;25518;47.878;15.914;2023-10-09T12:37:21;19.80;99.30
39849;DHT22;25518;47.878;15.914;2023-10-09T12:39:52;20.20;98.70
39849;DHT22;25518;47.878;15.914;2023-10-09T12:42:26;20.60;99.60
39849;DHT22;25518;47.878;15.914;2023-10-09T12:44:58;20.60;98.90
39849;DHT22;25518;47.878;15.914;2023-10-09T12:47:32;20.50;99.60
39849;DHT22;25518;47.878;15.914;2023-10-09T12:50:05;20.50;97.60
39849;DHT22;25518;47.878;15.914;2023-10-09T12:52:44;20.60;97.80
39849;DHT22;25518;47.878;15.914;2023-10-09T12:55:19;20.70;98.30
39849;DHT22;25518;47.878;15.914;2023-10-09T12:57:51;20.40;97.20
39849;DHT22;25518;47.878;15.914;2023-10-09T13:00:23;20.40;97.20
39849;DHT22;25518;47.878;15.914;2023-10-09T13:02:56;20.30;97.70
39849;DHT22;25518;47.878;15.914;2023-10-09T13:05:28;20.50;98.20
39849;DHT22;25518;47.878;15.914;2023-10-09T13:07:58;20.70;97.70
39849;DHT22;25518;47.878;15.914;2023-10-09T13:10:32;20.50;97.70
39849;DHT22;25518;47.878;15.914;2023-10-09T13:13:03;19.60;98.40
39849;DHT22;25518;47.878;15.914;2023-10-09T13:15:37;20.10;98.00
39849;DHT22;25518;47.878;15.914;2023-10-09T13:18:13;20.20;97.90
39849;DHT22;25518;47.878;15.914;2023-10-09T13:20:45;20.20;98.20
39849;DHT22;25518;47.878;15.914;2023-10-09T13:23:16;20.40;98.60
39849;DHT22;25518;47.878;15.914;2023-10-09T13:25:47;20.60;97.60
39849;DHT22;25518;47.878;15.914;2023-10-09T13:28:18;19.20;97.10
39849;DHT22;25518;47.878;15.914;2023-10-09T13:30:51;19.70;97.80
39849;DHT22;25518;47.878;15.914;2023-10-09T13:33:22;19.80;98.40
39849;DHT22;25518;47.878;15.914;2023-10-09T13:35:53;19.70;98.30
39849;DHT22;25518;47.878;15.914;2023-10-09T13:38:24;19.80;98.20
39849;DHT22;25518;47.878;15.914;2023-10-09T13:40:58;19.80;98.40
39849;DHT22;25518;47.878;15.914;2023-10-09T13:43:32;20.00;97.30
39849;DHT22;25518;47.878;15.914;2023-10-09T13:46:02;19.90;98.30
39849;DHT22;25518;47.878;15.914;2023-10-09T13:48:35;19.80;98.10
39849;DHT22;25518;47.878;15.914;2023-10-09T13:51:09;19.60;98.50
39849;DHT22;25518;47.878;15.914;2023-10-09T13:53:45;19.50;99.40
39849;DHT22;25518;47.878;15.914;2023-10-09T13:56:18;18.80;98.50
39849;DHT22;25518;47.878;15.914;2023-10-09T13:58:51;19.60;99.40
39849;DHT22;25518;47.878;15.914;2023-10-09T14:01:22;19.60;98.60
39849;DHT22;25518;47.878;15.914;2023-10-09T14:04:03;19.50;99.60
39849;DHT22;25518;47.878;15.914;2023-10-09T14:06:36;19.50;99.40
39849;DHT22;25518;47.878;15.914;2023-10-09T14:09:07;19.70;99.90
39849;DHT22;25518;47.878;15.914;2023-10-09T14:11:40;20.10;99.10
39849;DHT22;25518;47.878;15.914;2023-10-09T14:14:14;20.40;99.20
39849;DHT22;25518;47.878;15.914;2023-10-09T14:16:46;20.60;98.50
39849;DHT22;25518;47.878;15.914;2023-10-09T14:19:18;20.60;99.00
39849;DHT22;25518;47.878;15.914;2023-10-09T14:21:51;20.50;98.30
39849;DHT22;25518;47.878;15.914;2023-10-09T14:24:23;20.00;99.10
39849;DHT22;25518;47.878;15.914;2023-10-09T14:27:03;19.50;99.40
39849;DHT22;25518;47.878;15.914;2023-10-09T14:29:35;19.30;99.90
39849;DHT22;25518;47.878;15.914;2023-10-09T14:32:08;19.10;99.90
39849;DHT22;25518;47.878;15.914;2023-10-09T14:34:44;18.90;99.90
39849;DHT22;25518;47.878;15.914;2023-10-09T14:37:25;19.00;99.90
39849;DHT22;25518;47.878;15.914;2023-10-09T14:39:56;19.00;99.90
39849;DHT22;25518;47.878;15.914;2023-10-09T14:42:29;19.10;99.90
39849;DHT22;25518;47.878;15.914;2023-10-09T14:45:00;19.10;99.90
39849;DHT22;25518;47.878;15.914;2023-10-09T14:47:38;19.30;99.90
39849;DHT22;25518;47.878;15.914;2023-10-09T14:50:09;19.30;99.90
39849;DHT22;25518;47.878;15.914;2023-10-09T14:52:41;19.00;99.90
39849;DHT22;25518;47.878;15.914;2023-10-09T14:55:12;18.70;99.90
39849;DHT22;25518;47.878;15.914;2023-10-09T14:57:43;18.50;99.90
39849;DHT22;25518;47.878;15.914;2023-10-09T15:00:15;18.40;99.90
39849;DHT22;25518;47.878;15.914;2023-10-09T15:02:46;18.30;99.90
39849;DHT22;25518;47.878;15.914;2023-10-09T15:05:17;18.40;99.90
39849;DHT22;25518;47.878;15.914;2023-10-09T15:07:48;18.40;99.90
39849;DHT22;25518;47.878;15.914;2023-10-09T15:10:21;18.50;99.90
39849;DHT22;25518;47.878;15.914;2023-10-09T15:12:54;18.40;99.90
39849;DHT22;25518;47.878;15.914;2023-10-09T15:15:26;18.30;99.90
39849;DHT22;25518;47.878;15.914;2023-10-09T15:18:01;18.30;99.90
39849;DHT22;25518;47.878;15.914;2023-10-09T15:20:35;18.30;99.90
39849;DHT22;25518;47.878;15.914;2023-10-09T15:23:07;18.20;99.90
39849;DHT22;25518;47.878;15.914;2023-10-09T15:25:39;18.20;99.90
39849;DHT22;25518;47.878;15.914;2023-10-09T15:28:13;18.20;99.90
39849;DHT22;25518;47.878;15.914;2023-10-09T15:30:46;18.30;99.90
39849;DHT22;25518;47.878;15.914;2023-10-09T15:33:18;18.30;99.90
39849;DHT22;25518;47.878;15.914;2023-10-09T15:35:50;18.40;99.90
39849;DHT22;25518;47.878;15.914;2023-10-09T15:38:21;18.40;99.90
39849;DHT22;25518;47.878;15.914;2023-10-09T15:40:52;18.30;99.90
39849;DHT22;25518;47.878;15.914;2023-10-09T15:43:23;17.50;99.90
39849;DHT22;25518;47.878;15.914;2023-10-09T15:45:55;18.10;99.90
39849;DHT22;25518;47.878;15.914;2023-10-09T15:48:29;16.50;99.90
39849;DHT22;25518;47.878;15.914;2023-10-09T15:51:00;18.10;99.90
39849;DHT22;25518;47.878;15.914;2023-10-09T15:53:31;18.20;99.90
39849;DHT22;25518;47.878;15.914;2023-10-09T15:56:04;18.20;99.90
39849;DHT22;25518;47.878;15.914;2023-10-09T15:58:41;18.10;99.90
39849;DHT22;25518;47.878;15.914;2023-10-09T16:01:18;18.20;99.90
39849;DHT22;25518;47.878;15.914;2023-10-09T16:03:49;18.20;99.90
39849;DHT22;25518;47.878;15.914;2023-10-09T16:06:20;18.50;99.90
39849;DHT22;25518;47.878;15.914;2023-10-09T16:08:51;18.50;99.90
39849;DHT22;25518;47.878;15.914;2023-10-09T16:11:23;18.50;99.90
39849;DHT22;25518;47.878;15.914;2023-10-09T16:13:54;18.40;99.90
39849;DHT22;25518;47.878;15.914;2023-10-09T16:16:27;18.50;99.90
39849;DHT22;25518;47.878;15.914;2023-10-09T16:19:00;18.60;99.90
39849;DHT22;25518;47.878;15.914;2023-10-09T16:21:31;18.40;99.90
39849;DHT22;25518;47.878;15.914;2023-10-09T16:24:02;18.10;99.90
39849;DHT22;25518;47.878;15.914;2023-10-09T16:26:36;18.20;99.90
39849;DHT22;25518;47.878;15.914;2023-10-09T16:29:12;18.20;99.90
39849;DHT22;25518;47.878;15.914;2023-10-09T16:31:43;18.10;99.90
39849;DHT22;25518;47.878;15.914;2023-10-09T16:34:14;18.00;99.90
39849;DHT22;25518;47.878;15.914;2023-10-09T16:36:46;18.00;99.90
39849;DHT22;25518;47.878;15.914;2023-10-09T16:39:17;18.00;99.90